x

Lake Winnipeg S. Basin (45140) Wave Buoy

4:00pm - Sun 24th Sep 2017 All times are UTC.

  • Sig Wave height 2.6ft
  • Peak Period 4s
  • Wind
    20mph, 22mph gusts
  • Sea Temp 58°f
  • Air Temp 52°f
  • Sea Pressure 1014.7mb

More Historic Weather Station data

Upgrade to MSW Pro to gain access to the past 30 days of data for over 8000 Wavebouys and Weather Stations around the globe.

Join

Comparision Forecast

View Surf forecast
   
Sun 09/24 4:00pm 2.5ft 4s 20 22 mph 1014.7mb 58f 52f
3:00pm 2.5ft 4s 22 27 mph 1014.6mb 58f 52f
2:00pm 2.5ft 4s 20 22 mph 1015.5mb 58f 52f
1:00pm 2.5ft 4s 20 22 mph 1016.4mb 58f 52f
12:00pm 2.5ft 4s 18 20 mph 1017.2mb 58f 52f
11:00am 2.5ft 4s 20 22 mph 1016.9mb 58f 52f
10:00am 2.5ft 4s 18 22 mph 1017.5mb 58f 53f
9:00am 2ft 3s 18 20 mph 1017.7mb 58f 53f
8:00am 1.6ft 3s 16 20 mph 1018.7mb 58f 53f
7:00am 1.6ft 3s 16 18 mph 1018.9mb 58f 54f
6:00am 1.6ft 3s 13 18 mph 1019.1mb 58f 54f
5:00am 1.3ft 3s 18 20 mph 1018.5mb 58f 54f
4:00am 1.3ft 3s 13 13 mph 1019.4mb 58f 54f
3:00am 1.3ft 3s 16 18 mph 1019.4mb 58f 54f
2:00am 1ft 3s 13 16 mph 1019.7mb 58f 55f
1:00am 1.3ft 3s 9 11 mph 1020mb 58f 55f
12:00am 1.3ft 3s 11 13 mph 1019.6mb 58f 55f
Sat 09/23 11:00pm 1.6ft 4s 13 16 mph 1019.5mb 58f 55f
10:00pm 1.6ft 4s 13 16 mph 1019.3mb 58f 55f
9:00pm 2ft 4s 16 18 mph 1018.8mb 58f 55f
8:00pm 2ft 4s 16 20 mph 1018.1mb 58f 55f
7:00pm 2.5ft 3s 18 22 mph 1018.2mb 58f 54f
6:00pm 2ft 4s 18 22 mph 1018.1mb 58f 54f
5:00pm 2ft 4s 16 18 mph 1018mb 58f 53f
4:00pm 2.5ft 4s 18 20 mph 1017.4mb 58f 53f
3:00pm 2.5ft 4s 20 25 mph 1016.2mb 58f 52f
2:00pm 2.5ft 4s 20 25 mph 1016.1mb 58f 52f
1:00pm 2.5ft 4s 20 22 mph 1015mb 58f 52f
12:00pm 2.5ft 4s 20 25 mph 1014.4mb 58f 52f
11:00am 3ft 4s 20 22 mph 1013.9mb 58f 53f
10:00am 3ft 4s 20 25 mph 1014mb 58f 53f
9:00am 3ft 4s 20 22 mph 1013.3mb 58f 53f
8:00am 3ft 4s 22 27 mph 1012.8mb 58f 53f
7:00am  -   -  22
mph
1012.9mb - 53f
6:00am 3.5ft 5s 18 22 mph 1011.9mb 59f 54f
5:00am 3.5ft 5s 20 25 mph 1012mb 59f 55f
4:00am 4ft 4s 29 34 mph 1011.5mb 59f 54f
3:00am 3.5ft 4s 27 31 mph 1012.9mb 59f 53f
2:00am 3ft 4s 22 27 mph 1013.4mb 59f 54f
12:00am 3.5ft 4s 20 25 mph 1012.8mb 59f 55f
Fri 09/22 11:00pm 3.5ft 4s 27 34 mph 1012.7mb 59f 55f
10:00pm 2.5ft 4s 22 27 mph 1012.3mb 59f 56f
9:00pm 2.5ft 4s 22 29 mph 1012.2mb 59f 58f
8:00pm 2ft 4s 22 29 mph 1012.1mb 59f 58f
7:00pm 2ft 4s 18 20 mph 1013.5mb 59f 58f
6:00pm 2ft 4s 16 18 mph 1013.7mb 59f 58f
5:00pm 2ft 4s 16 18 mph 1013.8mb 59f 57f
4:00pm 1.6ft 3s 16 18 mph 1013.8mb 59f 56f
3:00pm 1.6ft 3s 13 18 mph 1013.3mb 59f 54f
2:00pm 1.3ft 3s 16 18 mph 1013.1mb 59f 53f
1:00pm 1.6ft 3s 11 13 mph 1013mb 59f 54f
12:00pm 1.6ft 4s 13 13 mph 1013.1mb 59f 54f
10:00am 1.3ft 3s 18 22 mph 1011.1mb 59f 56f
9:00am 1.3ft 3s 18 20 mph 1010.5mb 59f 57f
8:00am 1ft 2s 13 16 mph 1009.7mb 59f 58f
7:00am 1ft 2s 13 16 mph 1009.6mb 59f 58f
6:00am 1ft 2s 11 13 mph 1009.4mb 59f 59f
5:00am 0.7ft 3s 16 18 mph 1009.3mb 59f 58f
4:00am 0.7ft 2s 9 11 mph 1008.4mb 59f 60f
3:00am 0.7ft 2s 11 13 mph 1008.2mb 59f 60f
2:00am 0.7ft 2s 11 13 mph 1008.2mb 59f 60f
1:00am 0.3ft 3s 13 16 mph 1008.1mb 59f 60f
12:00am 0.3ft 2s 9 11 mph 1008mb 59f 60f
Thu 09/21 11:00pm 0.3ft 2s 7 9 mph 1007.9mb 59f 60f
10:00pm 0.7ft 3s 7 9 mph 1007.8mb 59f 60f
9:00pm 1ft 3s 4 4 mph 1008.1mb 59f 60f
8:00pm 1.3ft 4s 4 7 mph 1008.4mb 59f 60f
7:00pm 2.5ft 4s 11 13 mph 1008.3mb 59f 60f
4:00pm  -   -  18
mph
1007.4mb 59f 60f
3:00pm 3.5ft 4s 25 29 mph 1006.9mb 59f 60f
2:00pm 3.5ft 4s 27 31 mph 1006.7mb 59f 60f
1:00pm 3ft 4s 25 31 mph 1006.4mb 59f 58f
12:00pm 2ft 4s 18 25 mph 1007.1mb 59f 58f
11:00am 1.6ft 4s 18 22 mph 1007mb 59f 57f
10:00am 2ft 4s 11 16 mph 1007.1mb 59f 58f
9:00am 2.5ft 4s 18 22 mph 1007mb 59f 58f
7:00am 2.5ft 4s 20 25 mph 1006.4mb 59f 60f
6:00am 2ft 4s 16 18 mph 1005.9mb 59f 60f
5:00am 2ft 4s 18 20 mph 1005.7mb 59f 60f
4:00am 1.6ft 4s 16 18 mph 1005.5mb 59f 60f
3:00am 2ft 4s 16 18 mph 1005mb 59f 62f
2:00am 2ft 4s 13 13 mph 1004.4mb 59f 62f
1:00am 1.6ft 4s 2 4 mph 1003.6mb 59f 61f
12:00am 1.6ft 4s 16 18 mph 1002.6mb 60f 63f
Wed 09/20 11:00pm 1.3ft 3s 13 16 mph 1002.1mb 60f 63f
10:00pm 1.3ft 3s 11 20 mph 1002.1mb 60f 63f
9:00pm 1.3ft 4s 11 13 mph 1002.3mb 60f 61f
8:00pm 1.6ft 4s 11 13 mph 1001.9mb 59f 62f
7:00pm 2.5ft 4s 16 18 mph 1001.5mb 59f 60f
6:00pm 3ft 4s 20 25 mph 1001mb 59f 58f